Time;durP1;ratioP1;P1;durP2;ratioP2;P2;SDS_P1;SDS_P2;PMS_P1;PMS_P2;Temp;Humidity;BMP_temperature;BMP_pressure;BME280_temperature;BME280_humidity;BME280_pressure;Samples;Min_cycle;Max_cycle;Signal;HPM_P1;HPM_P2
2022/09/28 00:00:58;;;;;;;4.00;2.03;;;;;;;10.76;54.32;98468.75;10093681;29;20198;-81
2022/09/28 00:06:23;;;;;;;2.90;2.60;;;;;;;10.71;53.67;98467.06;10106371;29;20301;-81
2022/09/28 00:11:45;;;;;;;2.80;2.60;;;;;;;10.40;54.68;98461.78;10093507;29;20197;-81
2022/09/28 00:17:07;;;;;;;3.80;3.00;;;;;;;10.92;53.24;98453.28;10105987;29;20297;-81
2022/09/28 00:22:29;;;;;;;5.77;3.50;;;;;;;10.84;53.81;98460.00;10054642;29;20198;-82
2022/09/28 00:27:51;;;;;;;5.87;3.17;;;;;;;10.30;54.73;98454.81;10055182;29;20282;-81
2022/09/28 00:33:13;;;;;;;4.53;3.30;;;;;;;11.41;52.13;98454.22;10053542;29;20262;-81
2022/09/28 00:38:38;;;;;;;3.83;3.43;;;;;;;10.57;53.91;98450.75;10053487;29;20211;-81
2022/09/28 00:44:41;;;;;;;4.27;3.53;;;;;;;11.30;52.51;98437.19;10053944;29;20606;-81
2022/09/28 00:50:23;;;;;;;5.43;3.83;;;;;;;11.91;51.32;98428.09;10053610;29;20211;-81
2022/09/28 00:55:48;;;;;;;3.70;3.30;;;;;;;11.24;51.55;98433.06;10053389;29;20266;-81
2022/09/28 01:01:11;;;;;;;4.97;3.93;;;;;;;11.06;53.50;98430.06;10053018;29;20206;-81
2022/09/28 01:06:35;;;;;;;3.60;3.30;;;;;;;11.04;52.90;98440.13;10067504;29;20651;-81
2022/09/28 01:11:57;;;;;;;4.73;3.80;;;;;;;10.41;53.71;98436.06;10055285;29;20203;-81
2022/09/28 01:17:25;;;;;;;5.50;3.30;;;;;;;10.76;52.52;98432.13;10054045;29;20255;-81
2022/09/28 01:23:22;;;;;;;3.77;3.07;;;;;;;11.24;50.77;98431.06;10078293;29;20495;-81
2022/09/28 01:28:45;;;;;;;3.13;2.80;;;;;;;10.69;51.97;98427.22;10077886;29;20289;-81
2022/09/28 01:34:13;;;;;;;3.57;2.47;;;;;;;11.24;50.78;98438.72;10078138;29;20641;-81
2022/09/28 01:39:39;;;;;;;5.43;2.47;;;;;;;10.99;51.04;98431.97;10077243;29;20218;-81
2022/09/28 01:45:06;;;;;;;3.63;2.27;;;;;;;10.73;52.16;98436.50;10078213;29;20332;-82
2022/09/28 01:50:30;;;;;;;4.37;2.80;;;;;;;10.93;51.95;98420.25;10090775;29;20202;-80
2022/09/28 01:55:58;;;;;;;5.17;3.37;;;;;;;11.38;50.60;98418.31;10091093;29;20202;-81
2022/09/28 02:01:27;;;;;;;3.57;3.27;;;;;;;11.25;50.85;98421.41;10092225;29;20596;-81
2022/09/28 02:06:56;;;;;;;3.90;3.50;;;;;;;11.21;50.47;98422.59;10097973;29;20226;-81
2022/09/28 02:12:23;;;;;;;4.13;3.80;;;;;;;10.98;52.05;98419.09;10084796;29;20198;-81
2022/09/28 02:17:46;;;;;;;7.20;4.27;;;;;;;11.55;50.50;98414.91;10088904;29;20221;-81
2022/09/28 02:23:12;;;;;;;5.87;4.50;;;;;;;11.53;50.46;98417.28;10103729;29;20684;-81
2022/09/28 02:28:34;;;;;;;5.87;4.23;;;;;;;11.16;51.62;98420.91;10109409;29;20286;-80
2022/09/28 02:33:57;;;;;;;6.50;4.83;;;;;;;11.39;50.81;98417.13;10102424;29;20254;-82
2022/09/28 02:39:19;;;;;;;5.77;4.87;;;;;;;11.02;51.82;98425.59;10065319;29;20207;-81
2022/09/28 02:44:47;;;;;;;6.17;5.47;;;;;;;10.98;52.44;98425.53;10110919;29;20500;-81
2022/09/28 02:50:40;;;;;;;6.50;5.80;;;;;;;10.43;52.91;98428.03;10122942;29;20242;-81
2022/09/28 02:56:23;;;;;;;8.07;6.27;;;;;;;10.32;52.93;98429.88;10102299;29;20265;-81
2022/09/28 03:02:02;;;;;;;8.80;7.17;;;;;;;11.31;51.15;98421.06;10101551;29;20213;-79
2022/09/28 03:07:28;;;;;;;8.83;7.50;;;;;;;11.18;51.68;98434.63;10104645;29;20245;-81
2022/09/28 03:12:51;;;;;;;10.37;8.30;;;;;;;10.98;52.32;98431.16;10095149;29;20206;-81
2022/09/28 03:18:15;;;;;;;12.30;9.67;;;;;;;11.11;52.10;98429.72;10096324;29;20185;-81
2022/09/28 03:23:38;;;;;;;13.50;10.40;;;;;;;10.84;51.47;98436.63;10082037;29;20659;-81
2022/09/28 03:29:01;;;;;;;11.43;10.23;;;;;;;11.18;51.28;98429.00;10081195;29;20282;-79
2022/09/28 03:34:29;;;;;;;13.97;11.27;;;;;;;11.32;51.38;98428.34;10094595;29;20202;-81
2022/09/28 03:39:51;;;;;;;14.70;12.37;;;;;;;10.99;51.35;98429.97;10082005;29;20202;-81
2022/09/28 03:45:13;;;;;;;16.80;13.50;;;;;;;10.80;52.63;98436.59;10095240;29;20197;-81
2022/09/28 03:50:35;;;;;;;17.93;14.23;;;;;;;10.93;51.21;98434.34;10094193;29;20261;-81
2022/09/28 03:56:11;;;;;;;17.73;15.47;;;;;;;10.71;51.62;98432.44;10081233;29;20615;-78
2022/09/28 04:01:33;;;;;;;21.37;16.97;;;;;;;11.04;51.67;98434.47;10078364;29;20265;-78
2022/09/28 04:06:55;;;;;;;16.80;15.00;;;;;;;10.70;52.50;98436.44;10094431;29;20301;-81
2022/09/28 04:12:18;;;;;;;16.40;14.30;;;;;;;10.40;52.16;98434.44;10093768;29;20205;-79
2022/09/28 04:17:41;;;;;;;16.53;13.87;;;;;;;10.63;51.39;98447.63;10093583;29;20600;-81
2022/09/28 04:23:21;;;;;;;12.63;11.30;;;;;;;10.43;51.37;98438.50;10090424;29;20214;-81
2022/09/28 04:34:29;;;;;;;14.37;11.80;;;;;;;10.25;51.52;98432.59;10116243;29;20229;-81
2022/09/28 04:39:51;;;;;;;14.07;12.57;;;;;;;10.37;51.93;98440.81;10114089;29;20228;-81
2022/09/28 04:45:14;;;;;;;14.77;13.17;;;;;;;10.64;51.84;98443.63;10108185;29;20294;-78
2022/09/28 04:50:42;;;;;;;15.73;12.73;;;;;;;10.76;51.19;98446.22;10098143;29;20352;-78
2022/09/28 04:56:07;;;;;;;14.77;13.13;;;;;;;10.70;50.63;98444.91;10099642;29;20691;-78
2022/09/28 05:01:29;;;;;;;16.80;12.97;;;;;;;10.78;50.61;98455.09;10067217;29;20301;-79
2022/09/28 05:06:56;;;;;;;17.83;14.37;;;;;;;10.64;51.47;98449.25;10072879;29;20750;-79
2022/09/28 05:12:19;;;;;;;19.00;15.47;;;;;;;10.68;51.14;98450.13;10079948;29;20616;-79
2022/09/28 05:17:41;;;;;;;20.07;16.13;;;;;;;11.16;49.78;98443.47;10058577;29;20246;-79
2022/09/28 05:23:15;;;;;;;22.50;18.27;;;;;;;11.16;50.12;98449.13;10084568;29;20282;-79
2022/09/28 05:28:37;;;;;;;25.13;18.87;;;;;;;10.88;51.23;98448.78;10076697;29;20257;-79
2022/09/28 05:34:17;;;;;;;26.53;20.43;;;;;;;11.15;50.24;98450.31;10091072;29;20242;-80
2022/09/28 05:39:40;;;;;;;25.60;20.97;;;;;;;11.17;50.11;98445.09;10100082;29;20202;-79
2022/09/28 05:45:02;;;;;;;27.03;21.87;;;;;;;10.96;51.02;98450.47;10098049;29;20500;-79
2022/09/28 05:50:24;;;;;;;28.77;22.03;;;;;;;10.91;50.36;98454.47;10098125;29;20214;-79
2022/09/28 05:55:46;;;;;;;28.73;22.87;;;;;;;10.51;51.94;98446.66;10105402;29;20565;-79
2022/09/28 06:01:14;;;;;;;27.80;22.60;;;;;;;10.78;51.20;98449.44;10095706;29;20205;-79
2022/09/28 06:06:37;;;;;;;26.43;21.43;;;;;;;11.11;50.57;98446.63;10099158;29;20285;-79
2022/09/28 06:12:00;;;;;;;21.47;18.10;;;;;;;11.16;49.82;98454.75;10118969;29;20217;-79
2022/09/28 06:17:24;;;;;;;26.77;21.47;;;;;;;10.58;51.08;98457.22;10098117;29;20233;-80
2022/09/28 06:23:08;;;;;;;20.97;17.77;;;;;;;11.28;49.06;98453.69;10113095;29;20201;-80
2022/09/28 06:28:30;;;;;;;22.43;17.93;;;;;;;11.07;49.33;98465.53;10102685;29;20285;-79
2022/09/28 06:33:52;;;;;;;21.27;18.97;;;;;;;11.59;48.06;98466.53;10102967;29;20229;-79
2022/09/28 06:39:15;;;;;;;19.50;17.33;;;;;;;10.33;51.13;98479.38;10098924;29;20209;-79
2022/09/28 06:44:37;;;;;;;19.60;17.50;;;;;;;11.17;48.69;98481.75;10119863;29;20202;-79
2022/09/28 06:50:18;;;;;;;19.03;16.27;;;;;;;11.56;47.85;98478.59;10113320;29;20695;-78
2022/09/28 06:56:09;;;;;;;19.20;16.60;;;;;;;11.21;49.09;98491.06;10102846;29;20202;-78
2022/09/28 07:01:31;;;;;;;18.87;16.87;;;;;;;10.97;49.94;98494.38;10098976;29;20258;-78
2022/09/28 07:07:07;;;;;;;21.80;18.87;;;;;;;11.46;48.93;98502.66;10096122;29;20225;-79
2022/09/28 07:12:38;;;;;;;21.43;18.90;;;;;;;11.11;49.42;98503.03;10118344;29;20206;-79
2022/09/28 07:18:07;;;;;;;19.47;17.40;;;;;;;10.51;51.48;98507.81;10113328;29;20194;-79
2022/09/28 07:23:29;;;;;;;23.27;20.77;;;;;;;11.39;49.85;98505.38;10117651;29;20210;-79
2022/09/28 07:28:57;;;;;;;26.33;22.37;;;;;;;11.60;48.78;98518.94;10102772;29;20230;-79
2022/09/28 07:34:36;;;;;;;29.03;23.20;;;;;;;10.83;51.78;98528.81;10113095;29;20206;-78
2022/09/28 07:45:55;;;;;;;29.87;23.77;;;;;;;11.02;50.69;98536.34;10122299;29;20210;-79
2022/09/28 07:51:33;;;;;;;30.77;26.17;;;;;;;11.34;50.66;98538.78;10116815;29;20552;-79
2022/09/28 07:57:19;;;;;;;31.70;25.63;;;;;;;11.02;51.19;98543.97;10110628;29;20202;-79
2022/09/28 08:02:58;;;;;;;30.40;26.33;;;;;;;10.79;53.09;98549.72;10098407;29;20214;-79
2022/09/28 08:08:20;;;;;;;29.83;25.57;;;;;;;10.79;52.10;98558.97;10087154;29;20254;-79
2022/09/28 08:13:44;;;;;;;30.87;24.43;;;;;;;11.26;51.04;98554.78;10113246;29;20214;-79
2022/09/28 08:19:23;;;;;;;32.50;26.27;;;;;;;11.30;51.44;98563.28;10100229;29;20258;-79
2022/09/28 08:24:46;;;;;;;31.43;25.80;;;;;;;10.99;52.23;98575.75;10099260;29;20222;-80
2022/09/28 08:30:09;;;;;;;30.60;25.30;;;;;;;12.04;50.19;98560.50;10099890;29;20713;-79
2022/09/28 08:35:58;;;;;;;31.47;26.10;;;;;;;11.89;50.05;98582.94;10099948;29;20201;-79
2022/09/28 08:42:04;;;;;;;30.80;25.37;;;;;;;12.36;50.90;98572.97;10099962;29;20238;-79
2022/09/28 08:54:17;;;;;;;29.20;25.27;;;;;;;11.45;51.40;98584.84;10065309;29;20486;-79
2022/09/28 08:59:48;;;;;;;29.10;25.67;;;;;;;11.57;52.25;98593.09;10072743;29;20251;-79
2022/09/28 09:05:15;;;;;;;26.47;23.63;;;;;;;11.53;51.21;98609.16;10095562;29;20672;-79
2022/09/28 09:11:17;;;;;;;25.37;22.50;;;;;;;11.36;51.69;98607.69;10095596;29;20225;-79
2022/09/28 09:16:57;;;;;;;25.97;22.20;;;;;;;12.08;49.83;98615.03;10095067;29;20225;-78
2022/09/28 09:22:39;;;;;;;23.73;20.03;;;;;;;12.07;50.15;98628.31;10095671;29;20219;-78
2022/09/28 09:28:18;;;;;;;21.40;19.17;;;;;;;11.81;51.21;98620.78;10105123;29;20289;-79
2022/09/28 09:34:02;;;;;;;19.87;17.87;;;;;;;11.98;49.75;98625.81;10102050;29;20250;-79
2022/09/28 09:40:16;;;;;;;20.23;18.23;;;;;;;11.74;49.20;98626.31;10105814;29;20462;-79
2022/09/28 09:46:37;;;;;;;19.03;17.03;;;;;;;11.88;49.52;98634.97;10106198;29;20261;-79
2022/09/28 09:52:26;;;;;;;20.83;18.77;;;;;;;11.63;51.01;98636.69;10107610;29;20264;-79
2022/09/28 09:57:38;;;;;;;17.20;15.50;;;;;;;11.61;50.01;98639.06;10111327;29;20202;-78
2022/09/28 10:03:33;;;;;;;14.53;13.13;;;;;;;11.90;48.99;98646.69;10104120;29;20500;-78
2022/09/28 10:09:11;;;;;;;13.77;12.47;;;;;;;11.62;48.83;98652.78;10119945;29;20221;-78
2022/09/28 10:14:51;;;;;;;13.50;12.20;;;;;;;11.57;48.63;98652.34;10116283;29;20496;-78
2022/09/28 10:20:24;;;;;;;13.83;11.97;;;;;;;12.51;46.81;98653.81;10111059;29;20205;-79
2022/09/28 10:26:03;;;;;;;10.73;9.73;;;;;;;12.90;45.72;98644.88;10103803;29;20639;-79
2022/09/28 10:31:43;;;;;;;9.80;8.80;;;;;;;12.61;45.50;98650.28;10110975;29;20499;-79
2022/09/28 10:37:10;;;;;;;9.13;8.33;;;;;;;12.69;46.09;98648.31;10103380;29;20265;-78
2022/09/28 10:42:42;;;;;;;7.17;6.47;;;;;;;12.37;45.07;98662.16;10102932;29;20214;-78
2022/09/28 10:48:14;;;;;;;9.10;6.63;;;;;;;12.62;45.07;98660.38;10088169;29;20306;-78
2022/09/28 10:53:36;;;;;;;5.87;5.37;;;;;;;12.95;44.68;98661.44;10100518;29;20262;-79
2022/09/28 10:59:30;;;;;;;5.57;5.07;;;;;;;12.76;45.72;98665.34;10101510;29;20270;-79
2022/09/28 11:05:03;;;;;;;5.20;4.80;;;;;;;13.28;44.37;98661.31;10095834;29;20274;-79
2022/09/28 11:10:30;;;;;;;3.67;2.90;;;;;;;12.70;43.91;98672.56;10090084;29;20289;-79
2022/09/28 11:15:52;;;;;;;4.53;3.60;;;;;;;12.52;43.50;98663.09;10097750;29;20948;-79
2022/09/28 11:21:22;;;;;;;3.37;3.07;;;;;;;11.71;44.76;98663.00;10076832;29;20234;-78
2022/09/28 11:26:47;;;;;;;3.43;3.13;;;;;;;12.99;43.46;98656.63;10089037;29;20229;-79
2022/09/28 11:32:10;;;;;;;2.37;2.00;;;;;;;13.20;43.50;98653.97;10102358;29;20234;-79
2022/09/28 11:38:46;;;;;;;2.10;2.00;;;;;;;12.69;42.47;98659.63;10070241;29;20474;-79
2022/09/28 11:44:29;;;;;;;2.97;2.77;;;;;;;13.57;42.86;98658.63;10100357;29;20208;-79
2022/09/28 11:49:57;;;;;;;6.50;5.97;;;;;;;12.78;44.74;98676.25;10071336;29;20231;-79
2022/09/28 11:55:27;;;;;;;6.03;5.47;;;;;;;13.10;43.89;98671.66;10086524;29;20213;-79
2022/09/28 12:00:55;;;;;;;5.20;4.80;;;;;;;13.05;44.07;98669.19;10116419;29;20277;-79
2022/09/28 12:06:42;;;;;;;10.43;6.97;;;;;;;12.93;45.55;98661.03;10086778;29;20194;-79
2022/09/28 12:12:16;;;;;;;8.10;7.17;;;;;;;13.60;43.64;98663.50;10142930;29;20258;-79
2022/09/28 12:17:49;;;;;;;8.27;7.57;;;;;;;13.67;42.75;98661.53;10121876;29;20285;-79
2022/09/28 12:28:38;;;;;;;8.33;7.33;;;;;;;13.28;43.53;98663.34;10492970;27;20634;-79
2022/09/28 12:34:01;;;;;;;8.70;7.90;;;;;;;14.12;40.93;98659.28;10493731;28;20195;-79
2022/09/28 12:39:53;;;;;;;7.07;6.20;;;;;;;13.57;41.43;98652.97;10478256;28;20187;-80
2022/09/28 12:45:54;;;;;;;6.37;5.73;;;;;;;14.58;40.20;98647.25;10484082;28;20269;-79
2022/09/28 12:51:30;;;;;;;6.73;6.03;;;;;;;14.30;41.36;98650.84;10482990;28;20264;-80
2022/09/28 12:57:18;;;;;;;6.87;5.60;;;;;;;13.70;41.55;98648.59;10491560;28;20245;-80
2022/09/28 13:03:06;;;;;;;5.83;5.33;;;;;;;14.21;42.31;98658.91;10483482;28;20207;-79
2022/09/28 13:08:40;;;;;;;6.30;5.70;;;;;;;13.38;45.16;98662.59;10479438;28;20280;-80
2022/09/28 13:14:08;;;;;;;5.53;4.63;;;;;;;13.30;46.06;98661.72;10479913;28;20269;-80
2022/09/28 13:19:43;;;;;;;5.83;5.33;;;;;;;12.92;47.85;98660.22;10443630;28;20222;-80
2022/09/28 13:25:12;;;;;;;6.07;5.47;;;;;;;12.66;48.58;98660.41;10445082;28;20231;-80
2022/09/28 13:30:37;;;;;;;8.20;6.47;;;;;;;13.32;48.00;98662.13;10459153;28;20593;-80
2022/09/28 13:35:58;;;;;;;6.73;6.03;;;;;;;12.15;49.51;98672.38;10453972;28;20341;-80
2022/09/28 13:41:30;;;;;;;7.27;6.57;;;;;;;12.76;48.28;98656.06;10417001;28;20201;-80
2022/09/28 13:47:08;;;;;;;6.93;6.33;;;;;;;13.22;46.67;98647.94;10415709;28;20228;-79
2022/09/28 13:52:45;;;;;;;6.77;6.17;;;;;;;13.64;46.17;98653.03;10419167;28;20250;-79
2022/09/28 13:58:39;;;;;;;6.30;4.83;;;;;;;13.25;46.31;98656.44;10408988;28;20289;-80
2022/09/28 14:04:20;;;;;;;4.77;4.27;;;;;;;14.29;44.60;98657.72;10417192;28;20270;-79
2022/09/28 14:10:07;;;;;;;5.30;4.63;;;;;;;14.54;44.14;98655.75;10399815;28;20246;-79
2022/09/28 14:15:35;;;;;;;4.80;4.40;;;;;;;14.20;45.12;98652.44;10404095;28;20263;-79
2022/09/28 14:21:04;;;;;;;4.57;4.17;;;;;;;14.92;41.18;98654.16;10405397;28;20200;-80
2022/09/28 14:26:42;;;;;;;5.53;4.17;;;;;;;14.50;42.48;98660.59;10414662;28;20228;-80
2022/09/28 14:32:21;;;;;;;4.83;4.40;;;;;;;14.73;43.03;98663.84;10411385;28;20593;-79
2022/09/28 14:43:37;;;;;;;4.57;3.40;;;;;;;13.93;43.21;98662.47;10433401;28;20713;-80
2022/09/28 14:49:16;;;;;;;3.00;2.80;;;;;;;13.68;44.24;98676.50;10413779;28;20246;-79
2022/09/28 14:54:44;;;;;;;3.73;3.30;;;;;;;14.58;42.65;98662.25;10410291;28;20242;-79
2022/09/28 15:00:20;;;;;;;5.40;3.90;;;;;;;13.84;44.05;98667.66;10389799;28;20235;-80
2022/09/28 15:05:48;;;;;;;4.33;3.27;;;;;;;14.31;44.64;98663.81;10407142;28;20310;-79
2022/09/28 15:11:14;;;;;;;4.60;3.40;;;;;;;14.08;42.39;98662.13;10385256;28;20573;-79
2022/09/28 15:16:36;;;;;;;6.50;3.30;;;;;;;14.82;42.70;98662.69;10412099;28;20537;-78
2022/09/28 15:21:59;;;;;;;4.10;3.70;;;;;;;14.15;44.61;98663.34;10391783;28;20216;-80
2022/09/28 15:27:22;;;;;;;4.40;4.07;;;;;;;14.58;44.79;98673.59;10398814;28;20267;-79
2022/09/28 15:32:44;;;;;;;3.33;2.80;;;;;;;13.68;44.42;98671.63;10396752;28;20228;-80
2022/09/28 15:38:10;;;;;;;5.33;2.63;;;;;;;13.96;44.25;98682.28;10381744;28;20282;-78
2022/09/28 15:43:33;;;;;;;3.97;2.90;;;;;;;14.43;43.81;98689.75;10381210;28;20220;-79
2022/09/28 15:48:58;;;;;;;3.13;2.33;;;;;;;13.91;43.86;98696.03;10394737;28;20787;-80
2022/09/28 15:54:24;;;;;;;3.20;2.13;;;;;;;13.75;45.42;98693.53;10378869;28;20274;-80
2022/09/28 15:59:52;;;;;;;3.53;3.23;;;;;;;14.04;45.71;98697.31;10392051;28;20227;-81
2022/09/28 16:05:34;;;;;;;3.77;2.77;;;;;;;13.65;47.66;98708.44;10402263;28;20239;-80
2022/09/28 16:11:04;;;;;;;2.93;2.67;;;;;;;13.88;46.58;98708.13;10431970;28;20799;-81
2022/09/28 16:16:35;;;;;;;2.80;2.60;;;;;;;13.35;47.48;98715.13;10392672;28;20237;-80
2022/09/28 16:21:58;;;;;;;2.20;2.00;;;;;;;12.76;48.85;98727.56;10384503;28;20224;-80
2022/09/28 16:27:29;;;;;;;4.60;2.10;;;;;;;12.66;49.57;98720.56;10385878;28;20256;-80
2022/09/28 16:33:00;;;;;;;2.43;2.20;;;;;;;13.00;48.25;98726.16;10379476;28;20225;-80
2022/09/28 16:38:22;;;;;;;2.00;1.80;;;;;;;12.76;47.26;98738.03;10393536;28;20231;-78
2022/09/28 16:43:44;;;;;;;2.80;1.90;;;;;;;12.86;46.89;98742.97;10399616;28;20293;-80
2022/09/28 16:49:11;;;;;;;2.57;1.53;;;;;;;12.64;47.22;98745.56;10384977;28;20278;-78
2022/09/28 17:00:19;;;;;;;1.70;1.27;;;;;;;13.62;45.16;98746.84;10388892;28;20258;-80
2022/09/28 17:05:42;;;;;;;1.83;1.63;;;;;;;12.74;46.54;98758.22;10391511;28;20240;-79
2022/09/28 17:11:04;;;;;;;1.33;1.20;;;;;;;11.95;47.86;98764.94;10385740;28;20229;-80
2022/09/28 17:16:30;;;;;;;2.37;0.97;;;;;;;11.79;48.54;98781.25;10397737;28;20221;-79
2022/09/28 17:21:53;;;;;;;1.37;1.23;;;;;;;11.70;48.70;98780.72;10400375;28;20258;-81
2022/09/28 17:27:17;;;;;;;2.83;1.70;;;;;;;12.10;48.11;98785.72;10414719;28;20561;-78
2022/09/28 17:32:46;;;;;;;2.33;1.60;;;;;;;11.70;49.19;98792.00;10405275;28;20224;-78
2022/09/28 17:38:11;;;;;;;2.00;1.20;;;;;;;11.62;49.12;98793.06;10390179;28;20295;-80
2022/09/28 17:43:33;;;;;;;1.90;0.93;;;;;;;12.37;47.09;98803.44;10393302;28;20314;-78
2022/09/28 17:48:58;;;;;;;3.23;1.70;;;;;;;11.84;48.92;98795.03;10396993;28;20245;-78
2022/09/28 17:54:21;;;;;;;2.03;1.83;;;;;;;12.12;48.09;98805.91;10410332;28;20286;-77
2022/09/28 17:59:43;;;;;;;2.87;1.93;;;;;;;11.95;48.67;98807.28;10399776;28;20223;-78
2022/09/28 18:05:05;;;;;;;4.20;2.20;;;;;;;11.53;49.82;98801.81;10385656;28;20245;-78
2022/09/28 18:10:29;;;;;;;2.30;2.10;;;;;;;12.50;47.63;98804.81;10380874;28;20562;-77
2022/09/28 18:15:52;;;;;;;3.67;2.73;;;;;;;12.24;48.60;98807.69;10378930;28;20554;-78
2022/09/28 18:21:14;;;;;;;4.10;2.00;;;;;;;11.39;49.91;98814.84;10375813;28;20521;-78
2022/09/28 18:26:36;;;;;;;3.10;2.40;;;;;;;12.41;47.85;98812.75;10380420;28;20265;-79
2022/09/28 18:31:58;;;;;;;4.00;2.27;;;;;;;12.21;47.63;98819.75;10395586;28;20220;-77
2022/09/28 18:37:20;;;;;;;4.00;2.47;;;;;;;11.79;48.72;98825.59;10380371;28;20279;-78
2022/09/28 18:42:42;;;;;;;4.23;3.10;;;;;;;12.08;48.28;98822.00;10412627;28;20297;-78
2022/09/28 18:48:04;;;;;;;4.47;2.53;;;;;;;11.80;48.62;98825.22;10408188;28;20248;-78
2022/09/28 18:53:27;;;;;;;8.27;4.00;;;;;;;11.77;49.20;98833.63;10408677;28;20611;-77
2022/09/28 18:58:51;;;;;;;8.53;4.20;;;;;;;12.15;47.96;98826.91;10364509;28;20259;-78
2022/09/28 19:04:13;;;;;;;7.13;3.70;;;;;;;11.81;48.62;98829.66;10364105;28;20684;-78
2022/09/28 19:09:35;;;;;;;4.93;3.97;;;;;;;12.10;48.07;98825.25;10429554;28;20243;-79
2022/09/28 19:14:58;;;;;;;6.23;5.53;;;;;;;11.89;48.25;98831.38;10407003;28;20224;-79
2022/09/28 19:20:21;;;;;;;4.77;3.70;;;;;;;11.41;50.14;98835.03;10405652;28;20221;-80
2022/09/28 19:25:43;;;;;;;2.90;2.63;;;;;;;11.17;50.40;98828.59;10423787;28;20312;-79
2022/09/28 19:31:09;;;;;;;2.73;2.07;;;;;;;11.57;49.41;98827.28;10400428;28;20682;-80
2022/09/28 19:36:31;;;;;;;2.17;1.97;;;;;;;10.97;51.16;98835.47;10401546;28;20255;-80
2022/09/28 19:41:56;;;;;;;3.83;2.40;;;;;;;11.22;51.08;98833.09;10398887;28;20215;-79
2022/09/28 19:47:18;;;;;;;3.90;2.90;;;;;;;11.26;50.23;98840.44;10410628;28;20592;-79
2022/09/28 19:52:41;;;;;;;4.83;4.07;;;;;;;10.99;51.12;98844.38;10436794;28;20204;-80
2022/09/28 19:58:04;;;;;;;3.77;2.10;;;;;;;10.81;51.09;98848.88;10398480;28;20223;-80
2022/09/28 20:03:27;;;;;;;2.17;2.00;;;;;;;10.81;51.34;98860.97;10413552;28;20504;-80
2022/09/28 20:08:49;;;;;;;2.13;2.00;;;;;;;11.72;49.16;98862.19;10428203;28;20216;-80
2022/09/28 20:14:14;;;;;;;2.23;2.03;;;;;;;11.89;48.55;98862.44;10405697;28;20591;-79
2022/09/28 20:19:37;;;;;;;6.03;2.43;;;;;;;11.71;48.72;98864.19;10447580;28;20204;-79
2022/09/28 20:25:01;;;;;;;3.13;2.10;;;;;;;12.11;47.36;98876.91;10434459;28;20657;-80
2022/09/28 20:30:23;;;;;;;3.20;2.53;;;;;;;11.38;48.63;98875.28;10432388;28;20192;-80
2022/09/28 20:35:45;;;;;;;1.50;1.40;;;;;;;11.25;48.42;98875.47;10416511;28;20251;-80
2022/09/28 20:41:09;;;;;;;1.63;1.53;;;;;;;11.24;48.59;98881.47;10401235;28;20200;-79
2022/09/28 20:46:32;;;;;;;4.33;1.80;;;;;;;10.67;49.75;98891.69;10420053;28;20203;-81
2022/09/28 20:51:54;;;;;;;2.57;1.70;;;;;;;10.96;49.67;98889.41;10440895;28;20192;-79
2022/09/28 20:57:16;;;;;;;1.30;1.20;;;;;;;10.77;50.04;98891.09;10424067;28;20663;-80
2022/09/28 21:02:38;;;;;;;4.00;2.20;;;;;;;10.93;49.35;98899.44;10443391;28;20608;-79
2022/09/28 21:08:00;;;;;;;2.47;2.27;;;;;;;10.86;49.88;98899.28;10447913;28;20219;-80
2022/09/28 21:13:23;;;;;;;3.60;2.60;;;;;;;10.85;49.54;98901.28;10426664;28;20220;-79
2022/09/28 21:18:46;;;;;;;3.00;2.70;;;;;;;11.26;48.70;98901.69;10444860;28;20183;-80
2022/09/28 21:24:08;;;;;;;3.40;3.10;;;;;;;10.66;50.22;98908.97;10433340;28;20227;-80
2022/09/28 21:29:30;;;;;;;4.30;3.53;;;;;;;10.98;49.44;98903.94;10426079;28;20243;-80
2022/09/28 21:34:52;;;;;;;3.83;3.37;;;;;;;10.86;49.44;98908.56;10449060;28;20466;-80
2022/09/28 21:40:14;;;;;;;3.43;3.13;;;;;;;10.98;49.24;98904.75;10417294;28;20196;-80
2022/09/28 21:45:37;;;;;;;3.73;3.00;;;;;;;11.60;47.83;98908.38;10432110;28;20543;-79
2022/09/28 21:51:01;;;;;;;3.13;2.90;;;;;;;10.88;49.53;98916.66;10441633;28;20251;-80
2022/09/28 21:56:23;;;;;;;3.43;2.70;;;;;;;10.64;49.68;98916.97;10425128;28;20235;-80
2022/09/28 22:01:46;;;;;;;3.03;2.80;;;;;;;10.79;49.30;98913.25;10444035;28;20205;-80
2022/09/28 22:07:08;;;;;;;2.70;2.50;;;;;;;10.56;49.54;98910.34;10446108;28;20281;-79
2022/09/28 22:12:30;;;;;;;3.60;3.27;;;;;;;10.92;48.19;98911.91;10444718;28;20222;-79
2022/09/28 22:17:53;;;;;;;4.43;3.63;;;;;;;10.66;49.19;98908.97;10424198;28;20263;-79
2022/09/28 22:23:15;;;;;;;3.27;3.00;;;;;;;11.09;48.21;98908.59;10432280;28;20200;-79
2022/09/28 22:28:39;;;;;;;4.27;3.80;;;;;;;11.01;48.38;98915.31;10442638;28;20216;-80
2022/09/28 22:34:02;;;;;;;4.37;3.57;;;;;;;11.07;48.20;98919.47;10430748;28;20199;-79
2022/09/28 22:39:24;;;;;;;5.33;4.27;;;;;;;10.67;49.67;98925.50;10421880;28;20536;-79
2022/09/28 22:44:47;;;;;;;4.03;3.73;;;;;;;10.08;50.57;98918.13;10440970;28;20242;-80
2022/09/28 22:50:09;;;;;;;5.33;4.57;;;;;;;10.63;49.21;98916.16;10436402;28;20207;-80
2022/09/28 22:55:32;;;;;;;4.77;4.37;;;;;;;10.90;48.62;98923.56;10422181;28;20215;-79
2022/09/28 23:00:56;;;;;;;4.47;4.07;;;;;;;10.30;50.10;98925.06;10442292;28;20242;-80
2022/09/28 23:06:21;;;;;;;5.83;5.30;;;;;;;10.00;50.93;98921.97;10417051;28;20542;-79
2022/09/28 23:11:44;;;;;;;5.70;5.20;;;;;;;10.58;49.88;98916.44;10421172;28;20564;-80
2022/09/28 23:17:06;;;;;;;6.27;5.20;;;;;;;10.30;50.45;98925.06;10428367;28;20281;-80
2022/09/28 23:22:28;;;;;;;6.30;5.37;;;;;;;10.78;48.63;98920.91;10442464;28;20191;-80
2022/09/28 23:27:50;;;;;;;7.10;6.40;;;;;;;10.87;48.43;98926.28;10435007;28;20247;-79
2022/09/28 23:33:14;;;;;;;6.83;6.23;;;;;;;10.88;48.44;98927.94;10443056;28;20222;-79
2022/09/28 23:38:36;;;;;;;6.73;5.37;;;;;;;10.12;50.29;98924.66;10428653;28;20261;-79
2022/09/28 23:43:58;;;;;;;6.53;5.60;;;;;;;9.83;51.23;98931.59;10428535;28;20204;-80
2022/09/28 23:49:20;;;;;;;5.93;5.43;;;;;;;9.70;51.73;98924.44;10434371;28;20221;-79
2022/09/28 23:54:42;;;;;;;5.97;5.43;;;;;;;9.79;51.13;98930.69;10410052;28;20196;-79
